Potsdam, NY (13699)

11:48 AM EST on March 01, 2015 (GMT -0500)
ERC, Clarkson Campus | Change Station
CLOSE
Current Station
Personal Weather Station
Location: Potsdam, NY
Elevation: 479 ft
Nearby Weather Stations

Elev 479 ft 44.66 °N, 75.00 °W | Updated 10 minutes ago

Overcast
Overcast
29.1 °F
Feels Like 25 °F
N
4.0
Wind Variable Wind from South
Gusts 13.0 mph

Today
High -- | Low -- °F
--% Chance of Precip.
Yesterday
High -- | Low -- °F
Precip. -- in
6:37 AM 5:47 PM
Waxing Gibbous, 86% visible
Pressure 30.46 in
Visibility 10.0 miles
Clouds Overcast 7000 ft
Windchill 25 °F
Dew Point 13 °F
Humidity 51%
Rainfall 0.00 in
Snow Depth Not available.
UV 2.5 out of 12
Pollen .40 out of 12
Air Quality Not available.
Flu Activity Not available.
METAR KMSS 011553Z AUTO 04004KT 10SM OVC070 M03/M16 A3043 RMK AO2 SLP313 T10331156

More Conditions Fewer Conditions

Pressure 30.46 in
Visibility 10.0 miles
Clouds Overcast 7000 ft
Windchill 25 °F
Dew Point 13 °F
Humidity 51%
Rainfall 0.00 in
Snow Depth Not available.
UV 2.5 out of 12
Pollen .40 out of 12
Air Quality Not available.
Flu Activity Not available.
METAR KMSS 011553Z AUTO 04004KT 10SM OVC070 M03/M16 A3043 RMK AO2 SLP313 T10331156

More Conditions Fewer Conditions

10-Day Weather Forecast

Almanac

Astronomy

Mar. 01, 2015 Rise Set
Actual Time
Civil Twilight
Nautical Twilight
Astronomical Twilight
Moon
Length of Visible Light
Length of Day
Tomorrow will be .
, % of the Moon is Illuminated

Today's Extremes

State Highs State Lows

Community

WunderPhotos

Upload Photos

1,801,451 photos uploaded!

WunderBlogs® & News

Nearby

Air Quality

  Air Quality AQ Index Pollutant
Not available.

Snow Depth

Station Depth Elevation

Earthquake Activity

City Distance Mag. Time & Date
Minimum magnitude displayed is 2.5.

Coastal Water Temperatures

Place Temperature

Nearby Weather Stations